createdAt,value
2019-05-13T00:01:54.055Z,68.54
2019-05-13T00:04:24.439Z,68.44
2019-05-13T00:06:57.717Z,68.26
2019-05-13T00:09:28.386Z,68.26
2019-05-13T00:11:58.781Z,68.62
2019-05-13T00:14:29.327Z,68.60
2019-05-13T00:16:59.503Z,68.40
2019-05-13T00:19:29.336Z,68.56
2019-05-13T00:21:59.507Z,68.97
2019-05-13T00:24:29.735Z,69.08
2019-05-13T00:27:07.678Z,69.08
2019-05-13T00:29:38.095Z,68.42
2019-05-13T00:32:07.962Z,68.10
2019-05-13T00:34:37.610Z,68.35
2019-05-13T00:37:11.575Z,68.73
2019-05-13T00:39:39.928Z,68.73
2019-05-13T00:42:10.774Z,69.08
2019-05-13T00:44:41.018Z,69.25
2019-05-13T00:47:13.135Z,69.82
2019-05-13T00:49:43.725Z,69.81
2019-05-13T00:52:14.312Z,69.35
2019-05-13T00:54:44.692Z,69.85
2019-05-13T00:57:14.422Z,69.85
2019-05-13T00:59:44.439Z,69.27
2019-05-13T01:02:16.877Z,69.27
2019-05-13T01:04:48.087Z,69.51
2019-05-13T01:07:25.851Z,69.40
2019-05-13T01:09:50.076Z,69.25
2019-05-13T01:12:20.599Z,69.00
2019-05-13T01:14:50.755Z,69.00
2019-05-13T01:17:20.486Z,69.30
2019-05-13T01:19:57.322Z,69.27
2019-05-13T01:22:27.511Z,69.09
2019-05-13T01:24:57.653Z,68.98
2019-05-13T01:27:27.536Z,69.08
2019-05-13T01:29:57.045Z,69.35
2019-05-13T01:32:27.599Z,69.30
2019-05-13T01:34:58.655Z,69.40
2019-05-13T01:37:39.941Z,69.29
2019-05-13T01:40:00.578Z,69.24
2019-05-13T01:42:30.646Z,69.15
2019-05-13T01:45:00.577Z,69.09
2019-05-13T01:47:34.541Z,69.13
2019-05-13T01:50:06.775Z,68.93
2019-05-13T01:52:36.776Z,68.77
2019-05-13T01:55:08.190Z,69.08
2019-05-13T01:57:39.812Z,69.56
2019-05-13T02:00:10.360Z,69.77
2019-05-13T02:02:40.589Z,69.91
2019-05-13T02:05:10.956Z,69.82
2019-05-13T02:07:54.509Z,69.82
2019-05-13T02:10:14.599Z,69.83
2019-05-13T02:12:44.969Z,69.83
2019-05-13T02:15:19.615Z,70.00
2019-05-13T02:17:49.487Z,70.00
2019-05-13T02:20:19.546Z,70.28
2019-05-13T02:22:49.327Z,70.04
2019-05-13T02:25:20.238Z,69.84
2019-05-13T02:27:50.682Z,70.30
2019-05-13T02:30:20.603Z,70.52
2019-05-13T02:32:53.131Z,70.52
2019-05-13T02:35:23.239Z,70.48
2019-05-13T02:37:53.379Z,70.34
2019-05-13T02:40:23.442Z,70.70
2019-05-13T02:42:54.010Z,70.70
2019-05-13T02:45:23.746Z,70.59
2019-05-13T02:47:53.812Z,70.59
2019-05-13T02:50:23.730Z,70.62
2019-05-13T02:52:54.702Z,70.54
2019-05-13T02:55:25.036Z,70.49
2019-05-13T02:57:57.431Z,70.49
2019-05-13T03:00:27.476Z,70.67
2019-05-13T03:02:57.407Z,70.34
2019-05-13T03:05:27.223Z,70.34
2019-05-13T03:07:57.135Z,70.63
2019-05-13T03:10:28.287Z,70.75
2019-05-13T03:12:58.658Z,70.97
2019-05-13T03:15:32.774Z,71.18
2019-05-13T03:18:06.528Z,71.28
2019-05-13T03:20:38.481Z,71.56
2019-05-13T03:23:08.728Z,71.56
2019-05-13T03:25:39.084Z,71.49
2019-05-13T03:28:13.508Z,71.61
2019-05-13T03:30:45.886Z,71.61
2019-05-13T03:33:19.460Z,71.58
2019-05-13T03:35:47.586Z,71.55
2019-05-13T03:38:17.837Z,71.60
2019-05-13T03:40:52.453Z,71.60
2019-05-13T03:43:23.174Z,71.52
2019-05-13T03:45:55.188Z,71.63
2019-05-13T03:48:25.804Z,71.59
2019-05-13T03:50:56.613Z,71.36
2019-05-13T03:53:26.482Z,71.61
2019-05-13T03:55:58.008Z,71.67
2019-05-13T03:58:28.246Z,71.76
2019-05-13T04:00:58.046Z,71.96
2019-05-13T04:03:28.175Z,72.21
2019-05-13T04:05:58.542Z,72.53
2019-05-13T04:08:28.407Z,72.60
2019-05-13T04:11:02.905Z,72.60
2019-05-13T04:13:33.409Z,72.51
2019-05-13T04:16:04.523Z,72.62
2019-05-13T04:18:34.783Z,72.71
2019-05-13T04:21:05.025Z,72.61
2019-05-13T04:23:34.951Z,72.60
2019-05-13T04:26:05.691Z,72.49
2019-05-13T04:28:37.480Z,73.05
2019-05-13T04:31:07.657Z,72.79
2019-05-13T04:33:42.624Z,72.01
2019-05-13T04:36:14.170Z,72.01
2019-05-13T04:38:45.039Z,71.90
2019-05-13T04:41:15.052Z,71.99
2019-05-13T04:43:45.438Z,71.90
2019-05-13T04:46:14.928Z,71.64
2019-05-13T04:48:44.888Z,71.48
2019-05-13T04:51:15.487Z,70.93
2019-05-13T04:53:45.099Z,70.93
2019-05-13T04:56:16.334Z,70.85
2019-05-13T04:58:46.400Z,70.69
2019-05-13T05:01:48.862Z,70.50
2019-05-13T05:04:34.996Z,70.50
2019-05-13T05:07:22.279Z,70.43
2019-05-13T05:10:30.494Z,69.92
2019-05-13T05:13:23.575Z,69.92
2019-05-13T05:16:32.604Z,70.02
2019-05-13T05:19:32.036Z,69.78
2019-05-13T05:22:24.073Z,69.78
2019-05-13T05:25:21.949Z,69.80
2019-05-13T05:28:37.393Z,69.56
2019-05-13T05:31:35.176Z,69.46
2019-05-13T05:34:34.507Z,69.39
2019-05-13T05:37:27.117Z,69.21
2019-05-13T05:39:58.536Z,68.99
2019-05-13T05:42:32.316Z,68.96
2019-05-13T05:45:06.047Z,68.91
2019-05-13T05:47:38.331Z,68.87
2019-05-13T05:50:08.675Z,68.60
2019-05-13T05:52:42.336Z,68.46
2019-05-13T05:55:12.841Z,68.29
2019-05-13T05:57:46.656Z,68.36
2019-05-13T06:00:18.682Z,68.13
2019-05-13T06:02:53.223Z,67.96
2019-05-13T06:05:24.668Z,67.59
2019-05-13T06:07:55.347Z,67.30
2019-05-13T06:10:25.419Z,67.21
2019-05-13T06:12:56.217Z,67.20
2019-05-13T06:15:26.553Z,67.13
2019-05-13T06:17:56.695Z,66.95
2019-05-13T06:20:28.347Z,66.14
2019-05-13T06:22:58.525Z,65.73
2019-05-13T06:25:28.574Z,65.31
2019-05-13T06:27:58.668Z,64.82
2019-05-13T06:30:29.119Z,64.67
2019-05-13T06:33:01.480Z,63.93
2019-05-13T06:35:32.285Z,63.37
2019-05-13T06:38:03.186Z,63.37
2019-05-13T06:40:33.459Z,63.00
2019-05-13T06:43:03.467Z,63.00
2019-05-13T06:45:33.970Z,62.63
2019-05-13T06:48:04.116Z,61.94
2019-05-13T06:50:35.631Z,61.40
2019-05-13T06:53:08.387Z,59.63
2019-05-13T06:55:38.175Z,59.63
2019-05-13T06:58:08.269Z,59.66
2019-05-13T07:00:38.530Z,58.59
2019-05-13T07:03:08.485Z,58.59
2019-05-13T07:05:42.372Z,57.05
2019-05-13T07:08:12.722Z,57.05
2019-05-13T07:10:42.429Z,55.46
2019-05-13T07:13:12.413Z,55.46
2019-05-13T07:15:42.506Z,54.58
2019-05-13T07:18:12.264Z,54.57
2019-05-13T07:20:42.874Z,53.51
2019-05-13T07:23:14.311Z,54.18
2019-05-13T07:25:44.495Z,53.91
2019-05-13T07:28:14.387Z,53.76
2019-05-13T07:30:46.465Z,53.27
2019-05-13T07:33:17.206Z,52.79
2019-05-13T07:35:47.525Z,52.94
2019-05-13T07:38:18.404Z,53.09
2019-05-13T07:40:52.197Z,52.91
2019-05-13T07:43:22.054Z,51.84
2019-05-13T07:45:51.845Z,51.16
2019-05-13T07:48:27.637Z,49.67
2019-05-13T07:51:00.196Z,49.41
2019-05-13T07:53:27.723Z,47.83
2019-05-13T07:55:58.276Z,48.13
2019-05-13T07:58:28.403Z,46.52
2019-05-13T08:00:59.068Z,46.84
2019-05-13T08:03:31.703Z,46.18
2019-05-13T08:06:02.098Z,46.74
2019-05-13T08:08:32.472Z,42.83
2019-05-13T08:11:03.716Z,41.18
2019-05-13T08:13:33.515Z,39.74
2019-05-13T08:16:04.128Z,40.41
2019-05-13T08:18:34.319Z,40.83
2019-05-13T08:21:05.092Z,41.37
2019-05-13T08:23:35.851Z,41.45
2019-05-13T08:26:06.089Z,41.40
2019-05-13T08:28:56.532Z,41.15
2019-05-13T08:31:12.031Z,40.99
2019-05-13T08:33:42.537Z,39.54
2019-05-13T08:36:13.535Z,39.68
2019-05-13T08:38:43.838Z,39.22
2019-05-13T08:41:18.891Z,39.44
2019-05-13T08:43:46.512Z,38.74
2019-05-13T08:46:17.720Z,38.11
2019-05-13T08:48:47.612Z,38.11
2019-05-13T08:51:17.567Z,37.12
2019-05-13T08:53:47.453Z,37.10
2019-05-13T08:56:17.974Z,37.05
2019-05-13T08:58:48.695Z,36.59
2019-05-13T09:01:18.896Z,35.82
2019-05-13T09:03:56.733Z,35.78
2019-05-13T09:06:26.606Z,34.81
2019-05-13T09:08:56.925Z,33.79
2019-05-13T09:11:27.587Z,34.33
2019-05-13T09:13:58.434Z,34.19
2019-05-13T09:16:28.700Z,34.54
2019-05-13T09:18:58.922Z,34.32
2019-05-13T09:21:31.645Z,35.02
2019-05-13T09:24:02.237Z,35.62
2019-05-13T09:26:33.986Z,35.52
2019-05-13T09:29:04.164Z,35.06
2019-05-13T09:31:34.787Z,34.69
2019-05-13T09:34:05.103Z,34.95
2019-05-13T09:36:35.520Z,35.63
2019-05-13T09:39:06.862Z,36.40
2019-05-13T09:41:41.118Z,36.63
2019-05-13T09:44:12.134Z,37.08
2019-05-13T09:46:42.643Z,37.23
2019-05-13T09:49:19.728Z,35.78
2019-05-13T09:51:44.553Z,35.76
2019-05-13T09:54:15.510Z,35.04
2019-05-13T09:56:46.423Z,34.71
2019-05-13T09:59:17.172Z,34.70
2019-05-13T10:01:47.325Z,34.88
2019-05-13T10:04:18.141Z,36.28
2019-05-13T10:06:48.227Z,37.43
2019-05-13T10:09:18.648Z,37.66
2019-05-13T10:11:51.757Z,37.37
2019-05-13T10:14:22.979Z,37.49
2019-05-13T10:16:52.973Z,36.37
2019-05-13T10:19:25.384Z,35.54
2019-05-13T10:21:58.172Z,34.87
2019-05-13T10:24:28.626Z,34.76
2019-05-13T10:26:59.109Z,33.97
2019-05-13T10:29:31.603Z,33.53
2019-05-13T10:32:06.427Z,33.07
2019-05-13T10:34:37.458Z,33.20
2019-05-13T10:37:07.788Z,33.63
2019-05-13T10:39:38.313Z,33.87
2019-05-13T10:42:08.307Z,33.32
2019-05-13T10:44:39.082Z,32.96
2019-05-13T10:47:12.025Z,32.25
2019-05-13T10:49:42.398Z,32.63
2019-05-13T10:52:14.214Z,32.61
2019-05-13T10:54:44.537Z,32.79
2019-05-13T10:57:14.631Z,32.32
2019-05-13T10:59:44.743Z,31.93
2019-05-13T11:02:16.020Z,31.58
2019-05-13T11:04:46.029Z,32.90
2019-05-13T11:07:18.940Z,33.81
2019-05-13T11:09:52.785Z,33.90
2019-05-13T11:12:28.048Z,34.06
2019-05-13T11:14:55.463Z,34.25
2019-05-13T11:17:30.914Z,34.08
2019-05-13T11:19:58.157Z,34.26
2019-05-13T11:22:28.319Z,34.07
2019-05-13T11:24:57.980Z,33.90
2019-05-13T11:27:28.247Z,33.55
2019-05-13T11:29:58.532Z,33.29
2019-05-13T11:32:31.549Z,33.12
2019-05-13T11:35:01.865Z,32.91
2019-05-13T11:37:32.191Z,33.17
2019-05-13T11:40:03.022Z,33.12
2019-05-13T11:42:33.052Z,32.98
2019-05-13T11:45:03.668Z,32.58
2019-05-13T11:47:35.313Z,31.73
2019-05-13T11:50:07.845Z,32.10
2019-05-13T11:52:38.158Z,32.14
2019-05-13T11:55:09.239Z,31.52
2019-05-13T11:57:39.459Z,31.40
2019-05-13T12:00:13.404Z,30.55
2019-05-13T12:02:49.853Z,30.58
2019-05-13T12:05:15.742Z,31.12
2019-05-13T12:07:47.712Z,30.40
2019-05-13T12:10:22.614Z,30.22
2019-05-13T12:12:51.632Z,30.45
2019-05-13T12:15:38.121Z,30.10
2019-05-13T12:17:53.990Z,30.71
2019-05-13T12:20:23.870Z,31.06
2019-05-13T12:22:54.163Z,31.05
2019-05-13T12:25:24.121Z,30.57
2019-05-13T12:27:54.301Z,30.22
2019-05-13T12:30:24.402Z,30.64
2019-05-13T12:32:55.336Z,30.42
2019-05-13T12:35:32.828Z,30.63
2019-05-13T12:38:02.732Z,30.17
2019-05-13T12:40:33.734Z,30.01
2019-05-13T12:43:12.623Z,29.90
2019-05-13T12:45:43.230Z,30.09
2019-05-13T12:48:14.465Z,29.54
2019-05-13T12:50:44.177Z,29.54
2019-05-13T12:53:14.146Z,29.28
2019-05-13T12:55:51.835Z,29.77
2019-05-13T12:58:15.902Z,29.42
2019-05-13T13:00:46.733Z,29.32
2019-05-13T13:03:17.338Z,28.81
2019-05-13T13:05:48.078Z,29.03
2019-05-13T13:08:38.590Z,28.22
2019-05-13T13:10:54.034Z,27.40
2019-05-13T13:13:52.605Z,27.60
2019-05-13T13:15:56.841Z,27.64
2019-05-13T13:18:26.824Z,27.30
2019-05-13T13:21:01.346Z,27.34
2019-05-13T13:23:28.269Z,27.72
2019-05-13T13:26:03.064Z,27.43
2019-05-13T13:28:34.164Z,26.93
2019-05-13T13:31:04.513Z,27.06
2019-05-13T13:33:36.102Z,26.90
2019-05-13T13:36:06.618Z,26.61
2019-05-13T13:38:42.686Z,26.52
2019-05-13T13:41:21.935Z,26.80
2019-05-13T13:43:44.831Z,26.90
2019-05-13T13:46:37.241Z,26.92
2019-05-13T13:48:54.710Z,27.29
2019-05-13T13:51:26.585Z,27.02
2019-05-13T13:53:56.557Z,27.06
2019-05-13T13:56:25.758Z,26.85
2019-05-13T13:58:55.604Z,26.68
2019-05-13T14:01:27.574Z,26.48
2019-05-13T14:04:04.450Z,26.16
2019-05-13T14:09:07.701Z,26.89
2019-05-13T14:11:42.010Z,26.85
2019-05-13T14:14:12.822Z,26.65
2019-05-13T14:16:46.759Z,26.58
2019-05-13T14:19:17.403Z,26.55
2019-05-13T14:21:47.862Z,26.73
2019-05-13T14:24:17.730Z,26.51
2019-05-13T14:26:48.130Z,26.34
2019-05-13T14:29:21.123Z,26.50
2019-05-13T14:31:52.009Z,26.57
2019-05-13T14:34:22.512Z,26.18
2019-05-13T14:36:58.372Z,26.43
2019-05-13T14:39:28.096Z,26.42
2019-05-13T14:41:59.030Z,26.38
2019-05-13T14:44:29.554Z,25.83
2019-05-13T14:47:01.619Z,25.75
2019-05-13T14:49:31.870Z,25.37
2019-05-13T14:52:02.327Z,25.46
2019-05-13T14:54:33.843Z,25.45
2019-05-13T14:57:04.180Z,24.94
2019-05-13T14:59:35.801Z,25.35
2019-05-13T15:02:06.044Z,25.62
2019-05-13T15:04:37.691Z,25.86
2019-05-13T15:07:08.119Z,26.25
2019-05-13T15:09:39.063Z,26.75
2019-05-13T15:12:09.667Z,26.57
2019-05-13T15:14:42.743Z,26.32
2019-05-13T15:17:14.108Z,26.63
2019-05-13T15:19:44.371Z,26.50
2019-05-13T15:22:16.593Z,26.44
2019-05-13T15:24:46.836Z,26.26
2019-05-13T15:27:16.622Z,26.29
2019-05-13T15:29:48.480Z,26.48
2019-05-13T15:32:18.264Z,26.66
2019-05-13T15:34:48.477Z,26.47
2019-05-13T15:37:21.472Z,26.59
2019-05-13T15:39:52.051Z,26.86
2019-05-13T15:42:24.854Z,27.12
2019-05-13T15:44:54.926Z,27.15
2019-05-13T15:47:26.924Z,27.27
2019-05-13T15:49:56.846Z,27.39
2019-05-13T15:52:26.691Z,27.31
2019-05-13T15:55:01.361Z,27.42
2019-05-13T15:57:31.918Z,27.67
2019-05-13T16:00:03.614Z,27.62
2019-05-13T16:02:34.364Z,27.15
2019-05-13T16:05:08.851Z,26.82
2019-05-13T16:07:38.811Z,27.07
2019-05-13T16:10:12.901Z,27.00
2019-05-13T16:12:43.305Z,27.06
2019-05-13T16:15:17.863Z,27.17
2019-05-13T16:17:48.425Z,27.41
2019-05-13T16:20:18.479Z,27.65
2019-05-13T16:22:49.065Z,27.60
2019-05-13T16:25:19.791Z,27.81
2019-05-13T16:27:52.044Z,28.14
2019-05-13T16:30:23.374Z,28.38
2019-05-13T16:32:53.417Z,28.63
2019-05-13T16:35:24.534Z,28.74
2019-05-13T16:37:55.856Z,28.89
2019-05-13T16:40:26.135Z,29.06
2019-05-13T16:42:56.238Z,29.20
2019-05-13T16:45:31.564Z,29.13
2019-05-13T16:48:04.152Z,29.06
2019-05-13T16:50:34.930Z,29.10
2019-05-13T16:53:05.114Z,29.25
2019-05-13T16:55:35.219Z,29.22
2019-05-13T16:58:12.394Z,29.33
2019-05-13T17:00:42.538Z,29.61
2019-05-13T17:03:12.347Z,29.86
2019-05-13T17:05:43.420Z,29.95
2019-05-13T17:08:13.306Z,29.96
2019-05-13T17:10:46.382Z,29.86
2019-05-13T17:13:18.121Z,29.77
2019-05-13T17:15:52.092Z,29.88
2019-05-13T17:18:22.071Z,30.06
2019-05-13T17:20:53.131Z,30.22
2019-05-13T17:23:23.064Z,30.57
2019-05-13T17:25:53.509Z,30.76
2019-05-13T17:28:25.077Z,30.92
2019-05-13T17:30:55.494Z,30.78
2019-05-13T17:33:36.297Z,30.95
2019-05-13T17:36:06.375Z,32.85
2019-05-13T17:38:37.294Z,34.26
2019-05-13T17:41:07.245Z,35.23
2019-05-13T17:43:37.046Z,35.76
2019-05-13T17:46:07.577Z,36.37
2019-05-13T17:48:41.689Z,36.82
2019-05-13T17:51:16.600Z,37.32
2019-05-13T17:53:46.677Z,37.55
2019-05-13T17:56:17.250Z,37.34
2019-05-13T17:58:47.675Z,37.56
2019-05-13T18:01:21.402Z,37.36
2019-05-13T18:03:55.048Z,36.93
2019-05-13T18:06:27.547Z,37.04
2019-05-13T18:08:58.057Z,36.96
2019-05-13T18:11:29.357Z,36.48
2019-05-13T18:14:01.248Z,36.03
2019-05-13T18:16:33.574Z,35.90
2019-05-13T18:19:03.889Z,35.58
2019-05-13T18:21:34.710Z,35.25
2019-05-13T18:24:05.328Z,35.06
2019-05-13T18:26:48.745Z,35.00
2019-05-13T18:29:19.029Z,35.11
2019-05-13T18:31:52.554Z,35.67
2019-05-13T18:34:22.649Z,35.98
2019-05-13T18:36:58.518Z,37.04
2019-05-13T18:39:28.406Z,37.67
2019-05-13T18:41:58.874Z,37.54
2019-05-13T18:44:31.468Z,37.84
2019-05-13T18:47:01.683Z,37.87
2019-05-13T18:49:32.047Z,38.14
2019-05-13T18:52:02.659Z,38.33
2019-05-13T18:54:32.769Z,38.62
2019-05-13T18:57:03.503Z,38.50
2019-05-13T18:59:33.472Z,38.73
2019-05-13T19:02:03.439Z,38.74
2019-05-13T19:04:34.016Z,38.81
2019-05-13T19:07:03.759Z,38.93
2019-05-13T19:09:34.682Z,38.94
2019-05-13T19:12:04.764Z,39.02
2019-05-13T19:14:37.343Z,39.13
2019-05-13T19:17:08.309Z,39.18
2019-05-13T19:19:43.198Z,39.30
2019-05-13T19:22:15.037Z,39.43
2019-05-13T19:24:46.202Z,39.53
2019-05-13T19:27:16.423Z,39.52
2019-05-13T19:29:46.244Z,39.71
2019-05-13T19:32:16.927Z,39.76
2019-05-13T19:34:47.112Z,39.74
2019-05-13T19:37:17.668Z,39.86
2019-05-13T19:39:49.312Z,39.97
2019-05-13T19:42:22.295Z,39.97
2019-05-13T19:44:52.288Z,40.10
2019-05-13T19:47:22.735Z,40.12
2019-05-13T19:49:56.055Z,40.17
2019-05-13T19:52:35.056Z,40.29
2019-05-13T19:55:05.776Z,40.45
2019-05-13T19:57:37.384Z,40.69
2019-05-13T20:00:10.322Z,40.80
2019-05-13T20:02:42.198Z,41.04
2019-05-13T20:05:12.426Z,41.26
2019-05-13T20:07:42.843Z,41.36
2019-05-13T20:10:13.159Z,41.40
2019-05-13T20:12:44.291Z,41.66
2019-05-13T20:15:15.666Z,41.82
2019-05-13T20:17:45.722Z,41.86
2019-05-13T20:20:21.263Z,41.90
2019-05-13T20:22:51.801Z,41.99
2019-05-13T20:25:23.607Z,41.91
2019-05-13T20:27:53.602Z,42.13
2019-05-13T20:30:23.933Z,42.18
2019-05-13T20:32:54.059Z,42.22
2019-05-13T20:35:26.598Z,42.22
2019-05-13T20:37:57.674Z,42.36
2019-05-13T20:40:27.666Z,42.44
2019-05-13T20:42:58.365Z,42.41
2019-05-13T20:45:31.208Z,42.50
2019-05-13T20:48:03.214Z,42.62
2019-05-13T20:50:33.854Z,42.88
2019-05-13T20:53:04.288Z,43.05
2019-05-13T20:55:35.885Z,43.20
2019-05-13T20:58:06.021Z,43.32
2019-05-13T21:00:36.328Z,43.98
2019-05-13T21:03:07.375Z,44.58
2019-05-13T21:05:41.601Z,44.62
2019-05-13T21:08:11.961Z,44.29
2019-05-13T21:10:42.347Z,44.30
2019-05-13T21:13:14.417Z,44.35
2019-05-13T21:15:44.602Z,44.42
2019-05-13T21:18:18.431Z,44.36
2019-05-13T21:20:48.017Z,44.27
2019-05-13T21:23:17.938Z,44.30
2019-05-13T21:25:50.944Z,44.23
2019-05-13T21:28:22.040Z,44.32
2019-05-13T21:30:54.099Z,44.42
2019-05-13T21:33:24.853Z,44.47
2019-05-13T21:36:01.734Z,44.62
2019-05-13T21:38:32.610Z,45.17
2019-05-13T21:41:02.987Z,45.20
2019-05-13T21:43:33.409Z,45.29
2019-05-13T21:46:03.150Z,45.08
2019-05-13T21:48:34.196Z,44.95
2019-05-13T21:51:05.917Z,45.06
2019-05-13T21:53:36.621Z,45.38
2019-05-13T21:56:06.777Z,45.69
2019-05-13T21:58:36.983Z,46.23
2019-05-13T22:01:06.938Z,46.74
2019-05-13T22:03:45.294Z,47.46
2019-05-13T22:06:15.449Z,47.95
2019-05-13T22:08:46.616Z,48.34
2019-05-13T22:11:17.116Z,48.60
2019-05-13T22:13:47.657Z,48.76
2019-05-13T22:16:18.077Z,49.10
2019-05-13T22:18:47.967Z,49.41
2019-05-13T22:21:18.634Z,49.74
2019-05-13T22:23:48.954Z,50.12
2019-05-13T22:26:18.898Z,50.25
2019-05-13T22:28:51.112Z,50.36
2019-05-13T22:31:22.246Z,50.47
2019-05-13T22:33:53.586Z,50.55
2019-05-13T22:36:25.059Z,50.35
2019-05-13T22:38:55.515Z,50.19
2019-05-13T22:41:25.881Z,50.37
2019-05-13T22:43:58.905Z,50.50
2019-05-13T22:46:32.185Z,50.61
2019-05-13T22:49:03.766Z,50.80
2019-05-13T22:51:34.161Z,50.81
2019-05-13T22:54:05.206Z,50.93
2019-05-13T22:56:37.390Z,51.00
2019-05-13T22:59:09.350Z,51.44
2019-05-13T23:01:41.829Z,51.44
2019-05-13T23:04:15.294Z,52.07
2019-05-13T23:06:46.450Z,52.36
2019-05-13T23:09:16.367Z,52.50
2019-05-13T23:11:46.566Z,52.36
2019-05-13T23:14:16.423Z,52.80
2019-05-13T23:16:48.449Z,53.24
2019-05-13T23:19:21.525Z,53.21
2019-05-13T23:21:51.939Z,53.21
2019-05-13T23:24:24.355Z,53.55
2019-05-13T23:26:55.929Z,53.55
2019-05-13T23:29:26.508Z,53.55
2019-05-13T23:32:01.300Z,54.14
2019-05-13T23:34:32.242Z,54.46
2019-05-13T23:37:02.217Z,54.46
2019-05-13T23:39:33.541Z,54.58
2019-05-13T23:42:04.390Z,54.47
2019-05-13T23:44:35.536Z,54.22
2019-05-13T23:47:05.851Z,54.23
2019-05-13T23:49:38.397Z,54.34
2019-05-13T23:52:11.669Z,54.71
2019-05-13T23:54:43.052Z,55.09
2019-05-13T23:57:13.520Z,55.50
2019-05-13T23:59:43.734Z,55.56
